Time;durP1;ratioP1;P1;durP2;ratioP2;P2;SDS_P1;SDS_P2;PMS_P1;PMS_P2;Temp;Humidity;BMP_temperature;BMP_pressure;BME280_temperature;BME280_humidity;BME280_pressure;Samples;Min_cycle;Max_cycle;Signal;HPM_P1;HPM_P2
2021/12/13 00:01:09;;;;;;;;;;;7.90;56.90;;;;;;5017709;28;19905;-59
2021/12/13 00:03:34;;;;;;;;;;;7.90;55.70;;;;;;5017078;28;19905;-60
2021/12/13 00:06:05;;;;;;;;;;;7.90;55.70;;;;;;5017710;28;19997;-61
2021/12/13 00:08:32;;;;;;;;;;;7.80;56.60;;;;;;5017248;28;20346;-58
2021/12/13 00:11:07;;;;;;;;;;;7.80;59.00;;;;;;4999075;28;19912;-60
2021/12/13 00:13:37;;;;;;;;;;;7.80;58.10;;;;;;5017088;28;19916;-60
2021/12/13 00:16:04;;;;;;;;;;;7.70;58.80;;;;;;5016631;28;19905;-59
2021/12/13 00:18:32;;;;;;;;;;;7.70;57.80;;;;;;5017062;28;19906;-59
2021/12/13 00:21:04;;;;;;;;;;;7.80;57.90;;;;;;5016531;28;19913;-58
2021/12/13 00:23:32;;;;;;;;;;;7.70;58.70;;;;;;5016578;28;20044;-61
2021/12/13 00:25:59;;;;;;;;;;;7.70;58.40;;;;;;5016708;28;19905;-60
2021/12/13 00:28:26;;;;;;;;;;;7.70;59.10;;;;;;5016900;28;20008;-61
2021/12/13 00:31:10;;;;;;;;;;;7.70;57.20;;;;;;5016144;28;19906;-59
2021/12/13 00:33:36;;;;;;;;;;;7.80;54.80;;;;;;5016517;28;20345;-59
2021/12/13 00:36:11;;;;;;;;;;;7.80;58.30;;;;;;5016398;28;19905;-59
2021/12/13 00:38:40;;;;;;;;;;;7.80;58.90;;;;;;4998850;28;20364;-59
2021/12/13 00:41:10;;;;;;;;;;;7.80;58.10;;;;;;5016215;28;19905;-59
2021/12/13 00:43:37;;;;;;;;;;;7.70;58.50;;;;;;5015677;28;19909;-59
2021/12/13 00:46:05;;;;;;;;;;;7.70;60.80;;;;;;5015950;28;20292;-60
2021/12/13 00:48:31;;;;;;;;;;;7.60;60.20;;;;;;5015776;28;19905;-61
2021/12/13 00:50:59;;;;;;;;;;;7.70;59.80;;;;;;5016048;28;19905;-60
2021/12/13 00:53:25;;;;;;;;;;;7.70;59.00;;;;;;5016021;28;20304;-60
2021/12/13 00:55:51;;;;;;;;;;;7.80;59.10;;;;;;5016394;28;19928;-61
2021/12/13 00:58:19;;;;;;;;;;;7.70;58.00;;;;;;5016103;28;20350;-59
2021/12/13 01:00:47;;;;;;;;;;;7.80;57.10;;;;;;5015825;28;19905;-60
2021/12/13 01:03:17;;;;;;;;;;;7.80;56.70;;;;;;5015995;28;19941;-60
2021/12/13 01:05:46;;;;;;;;;;;7.80;55.90;;;;;;5015702;28;19956;-59
2021/12/13 01:08:15;;;;;;;;;;;7.90;56.10;;;;;;5015660;28;19916;-60
2021/12/13 01:10:53;;;;;;;;;;;7.90;55.80;;;;;;5015620;28;19909;-61
2021/12/13 01:13:18;;;;;;;;;;;7.90;56.30;;;;;;5015853;28;19910;-62
2021/12/13 01:15:56;;;;;;;;;;;7.90;58.60;;;;;;5016513;28;20335;-60
2021/12/13 01:18:34;;;;;;;;;;;7.90;58.40;;;;;;5016772;28;19905;-60
2021/12/13 01:21:30;;;;;;;;;;;7.90;58.70;;;;;;5015764;28;19929;-59
2021/12/13 01:24:04;;;;;;;;;;;7.90;57.80;;;;;;5015440;28;19912;-60
2021/12/13 01:26:37;;;;;;;;;;;7.90;55.30;;;;;;5015560;28;19906;-60
2021/12/13 01:29:06;;;;;;;;;;;7.90;53.90;;;;;;5015068;28;19909;-58
2021/12/13 01:31:38;;;;;;;;;;;7.90;56.20;;;;;;5015036;28;19917;-58
2021/12/13 01:34:04;;;;;;;;;;;7.90;55.30;;;;;;5015102;28;19905;-61
2021/12/13 01:36:44;;;;;;;;;;;8.00;56.50;;;;;;5014945;28;20358;-62
2021/12/13 01:39:12;;;;;;;;;;;8.00;56.80;;;;;;5015005;28;19912;-60
2021/12/13 01:41:43;;;;;;;;;;;8.00;55.90;;;;;;5015373;28;19906;-60
2021/12/13 01:44:14;;;;;;;;;;;8.00;55.40;;;;;;5015012;28;19931;-60
2021/12/13 01:46:42;;;;;;;;;;;8.00;57.50;;;;;;5014589;28;19928;-60
2021/12/13 01:49:08;;;;;;;;;;;8.00;57.80;;;;;;5014904;28;19912;-64
2021/12/13 01:51:34;;;;;;;;;;;7.90;58.70;;;;;;5014631;28;19913;-61
2021/12/13 01:54:05;;;;;;;;;;;7.90;58.40;;;;;;5014660;28;20003;-60
2021/12/13 01:56:57;;;;;;;;;;;7.90;58.60;;;;;;5014268;28;20004;-60
2021/12/13 02:02:20;;;;;;;;;;;7.80;56.80;;;;;;5014699;28;19988;-64
2021/12/13 02:04:54;;;;;;;;;;;7.90;56.70;;;;;;4997617;28;20288;-61
2021/12/13 02:07:22;;;;;;;;;;;7.90;57.30;;;;;;5014508;28;19912;-62
2021/12/13 02:09:49;;;;;;;;;;;7.90;58.00;;;;;;5014343;28;19906;-65
2021/12/13 02:12:16;;;;;;;;;;;7.90;57.20;;;;;;5014487;28;19984;-67
2021/12/13 02:14:47;;;;;;;;;;;7.90;56.70;;;;;;5014459;28;19933;-63
2021/12/13 02:17:15;;;;;;;;;;;8.00;57.40;;;;;;5014284;28;19914;-67
2021/12/13 02:19:50;;;;;;;;;;;8.00;57.60;;;;;;5014323;28;19913;-65
2021/12/13 02:22:22;;;;;;;;;;;8.00;56.60;;;;;;5013997;28;19964;-63
2021/12/13 02:24:48;;;;;;;;;;;8.10;55.40;;;;;;5014383;28;19992;-62
2021/12/13 02:27:18;;;;;;;;;;;8.00;55.40;;;;;;5014094;28;19905;-64
2021/12/13 02:29:45;;;;;;;;;;;7.90;57.50;;;;;;5014231;28;19944;-59
2021/12/13 02:32:10;;;;;;;;;;;8.00;57.20;;;;;;5013909;28;19920;-63
2021/12/13 02:34:38;;;;;;;;;;;7.80;57.80;;;;;;5014195;28;20353;-62
2021/12/13 02:37:06;;;;;;;;;;;7.80;56.80;;;;;;4996760;28;20011;-65
2021/12/13 02:39:34;;;;;;;;;;;7.90;55.90;;;;;;5014442;28;19909;-70
2021/12/13 02:42:01;;;;;;;;;;;7.90;55.80;;;;;;5014427;28;19906;-71
2021/12/13 02:44:30;;;;;;;;;;;7.90;55.10;;;;;;5013933;28;19941;-59
2021/12/13 02:46:58;;;;;;;;;;;8.00;52.90;;;;;;5013830;28;19917;-59
2021/12/13 02:49:24;;;;;;;;;;;8.10;52.20;;;;;;5013778;28;19910;-61
2021/12/13 02:51:52;;;;;;;;;;;8.10;56.30;;;;;;5013751;28;19921;-62
2021/12/13 02:54:23;;;;;;;;;;;7.90;57.70;;;;;;5013816;28;19991;-60
2021/12/13 02:56:51;;;;;;;;;;;7.90;58.60;;;;;;5013628;28;19909;-61
2021/12/13 02:59:17;;;;;;;;;;;7.90;57.70;;;;;;5013674;28;20280;-60
2021/12/13 03:01:43;;;;;;;;;;;7.80;56.20;;;;;;5013403;28;20346;-60
2021/12/13 03:04:11;;;;;;;;;;;7.80;56.10;;;;;;5013501;28;20007;-60
2021/12/13 03:06:40;;;;;;;;;;;7.80;57.10;;;;;;5013451;28;19906;-62
2021/12/13 03:09:10;;;;;;;;;;;7.80;58.50;;;;;;5013478;28;19932;-60
2021/12/13 03:11:36;;;;;;;;;;;7.80;59.10;;;;;;5013443;28;19917;-61
2021/12/13 03:14:01;;;;;;;;;;;7.80;58.40;;;;;;5013416;28;20328;-59
2021/12/13 03:16:30;;;;;;;;;;;7.90;57.60;;;;;;5013478;28;20362;-61
2021/12/13 03:19:08;;;;;;;;;;;8.00;56.00;;;;;;5013499;28;19964;-63
2021/12/13 03:22:01;;;;;;;;;;;8.00;55.40;;;;;;5013455;28;19905;-62
2021/12/13 03:24:36;;;;;;;;;;;8.00;55.80;;;;;;5013750;28;19960;-61
2021/12/13 03:27:04;;;;;;;;;;;8.10;55.60;;;;;;5013625;28;20000;-64
2021/12/13 03:30:02;;;;;;;;;;;8.10;55.90;;;;;;5013649;28;20335;-60
2021/12/13 03:32:33;;;;;;;;;;;8.10;55.50;;;;;;4959110;28;19924;-64
2021/12/13 03:35:04;;;;;;;;;;;8.10;56.00;;;;;;5013678;28;20276;-60
2021/12/13 03:37:30;;;;;;;;;;;8.00;57.10;;;;;;5013448;28;20435;-60
2021/12/13 03:39:58;;;;;;;;;;;7.90;58.70;;;;;;5013652;28;19905;-60
2021/12/13 03:42:26;;;;;;;;;;;7.80;58.00;;;;;;5013308;28;19912;-61
2021/12/13 03:44:54;;;;;;;;;;;7.80;58.10;;;;;;5013818;28;19952;-59
2021/12/13 03:47:23;;;;;;;;;;;7.80;56.20;;;;;;5013789;28;20358;-59
2021/12/13 03:49:51;;;;;;;;;;;7.90;55.90;;;;;;5013329;28;19909;-59
2021/12/13 03:52:18;;;;;;;;;;;7.90;56.30;;;;;;5013144;28;19913;-60
2021/12/13 03:54:45;;;;;;;;;;;7.90;57.90;;;;;;5013930;28;20273;-62
2021/12/13 03:57:11;;;;;;;;;;;8.00;56.30;;;;;;5013964;28;19912;-61
2021/12/13 03:59:38;;;;;;;;;;;8.00;56.30;;;;;;5013883;28;19905;-60
2021/12/13 04:02:06;;;;;;;;;;;8.10;55.90;;;;;;5013998;28;19959;-59
2021/12/13 04:04:35;;;;;;;;;;;8.10;55.90;;;;;;5014202;28;19995;-60
2021/12/13 04:07:06;;;;;;;;;;;8.00;56.30;;;;;;5013941;28;19905;-59
2021/12/13 04:09:32;;;;;;;;;;;7.90;58.10;;;;;;5014293;28;19905;-62
2021/12/13 04:12:00;;;;;;;;;;;7.90;58.50;;;;;;5013527;28;20445;-60
2021/12/13 04:14:31;;;;;;;;;;;7.80;58.70;;;;;;5013531;28;19995;-59
2021/12/13 04:17:07;;;;;;;;;;;7.80;58.90;;;;;;5013409;28;19949;-59
2021/12/13 04:19:53;;;;;;;;;;;7.80;58.30;;;;;;5017993;28;19983;-59
2021/12/13 04:22:21;;;;;;;;;;;7.90;58.10;;;;;;5016825;28;20353;-59
2021/12/13 04:24:49;;;;;;;;;;;7.90;57.00;;;;;;5016568;28;19999;-59
2021/12/13 04:27:26;;;;;;;;;;;7.80;59.20;;;;;;5016254;28;19913;-60
2021/12/13 04:29:54;;;;;;;;;;;7.80;57.30;;;;;;5016925;28;20269;-60
2021/12/13 04:32:25;;;;;;;;;;;7.70;59.10;;;;;;5016110;28;19921;-60
2021/12/13 04:34:52;;;;;;;;;;;7.80;58.90;;;;;;5016534;28;19905;-60
2021/12/13 04:37:19;;;;;;;;;;;7.70;58.20;;;;;;5016188;28;19915;-59
2021/12/13 04:39:48;;;;;;;;;;;7.70;59.10;;;;;;5016279;28;19905;-59
2021/12/13 04:42:16;;;;;;;;;;;7.70;57.80;;;;;;5016043;28;19913;-59
2021/12/13 04:44:50;;;;;;;;;;;7.80;56.70;;;;;;5015838;28;19915;-60
2021/12/13 04:47:23;;;;;;;;;;;7.80;56.10;;;;;;5016095;28;19917;-60
2021/12/13 04:50:12;;;;;;;;;;;7.80;55.80;;;;;;5015966;28;19952;-60
2021/12/13 04:52:39;;;;;;;;;;;7.90;55.30;;;;;;5002538;28;20361;-60
2021/12/13 04:55:06;;;;;;;;;;;8.00;54.20;;;;;;5016163;28;20380;-60
2021/12/13 04:57:32;;;;;;;;;;;8.10;54.10;;;;;;5016357;28;20285;-59
2021/12/13 04:59:59;;;;;;;;;;;8.10;54.50;;;;;;5015701;28;19910;-59
2021/12/13 05:02:25;;;;;;;;;;;8.10;55.20;;;;;;5015745;28;20345;-61
2021/12/13 05:04:58;;;;;;;;;;;8.20;56.00;;;;;;5015651;28;19905;-59
2021/12/13 05:07:25;;;;;;;;;;;8.30;53.90;;;;;;5015716;28;20372;-60
2021/12/13 05:09:51;;;;;;;;;;;8.30;54.50;;;;;;5015561;28;19912;-60
2021/12/13 05:12:18;;;;;;;;;;;8.20;56.10;;;;;;5015552;28;19913;-59
2021/12/13 05:14:45;;;;;;;;;;;8.10;57.80;;;;;;5015636;28;19999;-59
2021/12/13 05:17:13;;;;;;;;;;;8.00;58.50;;;;;;5015237;28;19913;-59
2021/12/13 05:19:40;;;;;;;;;;;7.90;58.20;;;;;;5015439;28;19905;-60
2021/12/13 05:22:07;;;;;;;;;;;7.90;57.50;;;;;;5015308;28;19909;-60
2021/12/13 05:24:35;;;;;;;;;;;8.00;57.00;;;;;;5015595;28;19910;-60
2021/12/13 05:27:08;;;;;;;;;;;8.00;57.50;;;;;;5015179;28;19912;-61
2021/12/13 05:29:33;;;;;;;;;;;8.00;57.90;;;;;;5014226;28;19988;-60
2021/12/13 05:32:08;;;;;;;;;;;8.00;57.80;;;;;;5015088;28;20032;-59
2021/12/13 05:34:38;;;;;;;;;;;8.00;57.30;;;;;;5014985;28;20314;-60
2021/12/13 05:37:06;;;;;;;;;;;8.00;56.70;;;;;;5015028;28;19967;-60
2021/12/13 05:39:33;;;;;;;;;;;8.00;55.60;;;;;;5014895;28;19974;-59
2021/12/13 05:42:09;;;;;;;;;;;8.00;54.00;;;;;;5014785;28;19906;-60
2021/12/13 05:44:37;;;;;;;;;;;8.00;55.60;;;;;;5014869;28;20250;-58
2021/12/13 05:47:05;;;;;;;;;;;8.00;57.30;;;;;;5014903;28;19920;-58
2021/12/13 05:49:36;;;;;;;;;;;7.90;59.30;;;;;;5014772;28;19913;-58
2021/12/13 05:52:12;;;;;;;;;;;8.00;58.20;;;;;;5014799;28;19917;-60
2021/12/13 05:54:41;;;;;;;;;;;8.00;57.60;;;;;;5014534;28;19906;-61
2021/12/13 05:57:07;;;;;;;;;;;7.90;57.30;;;;;;5014818;28;19913;-60
2021/12/13 05:59:34;;;;;;;;;;;7.90;57.20;;;;;;5014728;28;19909;-60
2021/12/13 06:02:07;;;;;;;;;;;8.00;56.30;;;;;;4996862;28;20273;-59
2021/12/13 06:04:39;;;;;;;;;;;8.10;56.70;;;;;;5014731;28;19913;-58
2021/12/13 06:07:12;;;;;;;;;;;8.00;58.10;;;;;;5014843;28;19906;-61
2021/12/13 06:09:43;;;;;;;;;;;8.00;56.90;;;;;;5014815;28;19952;-60
2021/12/13 06:12:11;;;;;;;;;;;8.00;56.00;;;;;;5014123;28;19914;-60
2021/12/13 06:14:36;;;;;;;;;;;8.00;57.50;;;;;;5014531;28;19912;-60
2021/12/13 06:17:05;;;;;;;;;;;8.10;55.50;;;;;;5014383;28;19909;-60
2021/12/13 06:19:46;;;;;;;;;;;8.10;52.10;;;;;;5014422;28;19905;-60
2021/12/13 06:22:14;;;;;;;;;;;8.20;52.50;;;;;;5014283;28;19995;-60
2021/12/13 06:24:41;;;;;;;;;;;8.20;54.40;;;;;;5014452;28;19912;-60
2021/12/13 06:27:09;;;;;;;;;;;8.20;55.00;;;;;;5014352;28;19952;-60
2021/12/13 06:29:53;;;;;;;;;;;8.30;55.60;;;;;;5014351;28;19906;-60
2021/12/13 06:32:20;;;;;;;;;;;8.10;57.70;;;;;;5013769;28;20364;-60
2021/12/13 06:34:46;;;;;;;;;;;8.00;59.20;;;;;;5014122;28;20349;-60
2021/12/13 06:37:11;;;;;;;;;;;8.10;59.50;;;;;;5014235;28;19911;-63
2021/12/13 06:39:37;;;;;;;;;;;8.30;57.40;;;;;;5012450;28;19916;-61
2021/12/13 06:42:04;;;;;;;;;;;8.60;60.50;;;;;;5009237;28;19917;-61
2021/12/13 06:44:37;;;;;;;;;;;8.90;62.80;;;;;;4997708;28;20357;-64
2021/12/13 06:47:07;;;;;;;;;;;9.20;54.60;;;;;;5013468;28;19917;-64
2021/12/13 06:49:41;;;;;;;;;;;9.30;54.00;;;;;;5013022;28;19915;-62
2021/12/13 06:52:12;;;;;;;;;;;9.40;52.70;;;;;;5013034;28;19920;-60
2021/12/13 06:54:41;;;;;;;;;;;9.30;51.90;;;;;;5013012;28;19905;-61
2021/12/13 06:57:09;;;;;;;;;;;9.30;52.10;;;;;;5012778;28;19912;-61
2021/12/13 06:59:37;;;;;;;;;;;9.30;52.30;;;;;;5012815;28;20357;-59
2021/12/13 07:02:11;;;;;;;;;;;9.20;52.20;;;;;;5012941;28;19919;-61
2021/12/13 07:04:38;;;;;;;;;;;9.00;52.80;;;;;;5012996;28;20334;-63
2021/12/13 07:07:11;;;;;;;;;;;8.80;55.80;;;;;;5012793;28;19905;-61
2021/12/13 07:09:37;;;;;;;;;;;8.60;56.50;;;;;;5012757;28;19995;-62
2021/12/13 07:12:10;;;;;;;;;;;8.60;56.20;;;;;;5012689;28;20019;-62
2021/12/13 07:14:38;;;;;;;;;;;8.60;55.70;;;;;;5010159;28;19995;-59
2021/12/13 07:17:22;;;;;;;;;;;8.60;55.80;;;;;;5012614;28;19988;-61
2021/12/13 07:19:49;;;;;;;;;;;8.60;54.80;;;;;;5012615;28;20373;-63
2021/12/13 07:22:20;;;;;;;;;;;8.60;54.90;;;;;;5012289;28;19933;-58
2021/12/13 07:24:51;;;;;;;;;;;8.40;57.20;;;;;;5013016;28;19921;-59
2021/12/13 07:27:16;;;;;;;;;;;8.50;56.90;;;;;;5010518;28;19956;-58
2021/12/13 07:29:45;;;;;;;;;;;8.50;56.60;;;;;;5013074;28;19948;-60
2021/12/13 07:32:10;;;;;;;;;;;8.60;54.60;;;;;;5013234;28;19919;-61
2021/12/13 07:34:50;;;;;;;;;;;8.60;52.90;;;;;;5012802;28;19999;-62
2021/12/13 07:37:16;;;;;;;;;;;8.60;55.60;;;;;;5013356;28;19905;-61
2021/12/13 07:39:43;;;;;;;;;;;8.50;57.10;;;;;;5013015;28;20062;-62
2021/12/13 07:42:10;;;;;;;;;;;8.50;56.60;;;;;;5013204;28;19905;-62
2021/12/13 07:44:44;;;;;;;;;;;8.50;54.80;;;;;;5012036;28;19960;-61
2021/12/13 07:47:09;;;;;;;;;;;8.50;54.50;;;;;;5011823;28;19909;-62
2021/12/13 07:49:38;;;;;;;;;;;8.50;55.80;;;;;;5011653;28;20407;-63
2021/12/13 07:52:05;;;;;;;;;;;8.60;55.20;;;;;;5011695;28;19944;-62
2021/12/13 07:54:38;;;;;;;;;;;8.70;54.50;;;;;;5014908;28;19914;-62
2021/12/13 07:57:12;;;;;;;;;;;8.90;53.40;;;;;;5015319;28;19910;-61
2021/12/13 07:59:38;;;;;;;;;;;9.00;53.80;;;;;;5015345;28;19959;-60
2021/12/13 08:02:05;;;;;;;;;;;8.90;56.00;;;;;;5015292;28;19910;-61
2021/12/13 08:04:48;;;;;;;;;;;8.90;56.40;;;;;;4990716;28;20418;-62
2021/12/13 08:07:18;;;;;;;;;;;8.90;56.80;;;;;;5015116;28;19910;-64
2021/12/13 08:09:46;;;;;;;;;;;8.90;56.40;;;;;;5015400;28;20375;-61
2021/12/13 08:12:14;;;;;;;;;;;9.10;55.10;;;;;;5014976;28;19920;-63
2021/12/13 08:14:41;;;;;;;;;;;9.20;54.60;;;;;;5015372;28;19905;-61
2021/12/13 08:17:12;;;;;;;;;;;9.20;51.30;;;;;;5015135;28;20043;-63
2021/12/13 08:19:38;;;;;;;;;;;9.30;53.40;;;;;;4998463;28;19905;-64
2021/12/13 08:22:09;;;;;;;;;;;9.40;52.40;;;;;;4998727;28;19912;-65
2021/12/13 08:24:40;;;;;;;;;;;9.50;52.30;;;;;;5015107;28;19916;-59
2021/12/13 08:27:08;;;;;;;;;;;9.60;56.30;;;;;;5015133;28;19905;-63
2021/12/13 08:29:35;;;;;;;;;;;9.60;54.20;;;;;;5015008;28;19909;-60
2021/12/13 08:32:06;;;;;;;;;;;9.70;54.40;;;;;;5015819;28;20360;-59
2021/12/13 08:34:34;;;;;;;;;;;9.70;58.90;;;;;;5015632;28;19928;-60
2021/12/13 08:37:00;;;;;;;;;;;9.80;59.10;;;;;;5015481;28;19912;-61
2021/12/13 08:39:34;;;;;;;;;;;9.80;57.70;;;;;;5015714;28;19910;-61
2021/12/13 08:42:09;;;;;;;;;;;9.90;56.40;;;;;;5016206;28;20017;-59
2021/12/13 08:44:37;;;;;;;;;;;10.00;53.80;;;;;;5015800;28;19906;-60
2021/12/13 08:47:12;;;;;;;;;;;10.10;53.70;;;;;;4996305;28;19928;-63
2021/12/13 08:49:41;;;;;;;;;;;10.10;52.30;;;;;;4996759;28;19914;-60
2021/12/13 08:52:16;;;;;;;;;;;10.10;54.80;;;;;;4996181;28;19920;-60
2021/12/13 08:55:01;;;;;;;;;;;10.00;54.00;;;;;;4996096;28;19948;-59
2021/12/13 08:57:36;;;;;;;;;;;10.00;53.30;;;;;;4955995;28;19914;-60
2021/12/13 09:00:16;;;;;;;;;;;10.00;53.50;;;;;;4995785;28;19909;-60
2021/12/13 09:02:46;;;;;;;;;;;10.20;54.20;;;;;;4996145;28;20020;-59
2021/12/13 09:05:20;;;;;;;;;;;10.20;54.50;;;;;;4995898;28;19996;-59
2021/12/13 09:07:48;;;;;;;;;;;10.20;52.00;;;;;;4996123;28;20346;-60
2021/12/13 09:10:13;;;;;;;;;;;10.30;52.00;;;;;;4995697;28;20341;-59
2021/12/13 09:12:44;;;;;;;;;;;10.50;51.70;;;;;;4995816;28;19965;-59
2021/12/13 09:15:31;;;;;;;;;;;10.60;50.20;;;;;;4995918;28;19984;-62
2021/12/13 09:17:57;;;;;;;;;;;10.70;50.10;;;;;;4995967;28;19996;-60
2021/12/13 09:20:25;;;;;;;;;;;10.70;49.70;;;;;;4995659;28;19968;-60
2021/12/13 09:22:51;;;;;;;;;;;10.80;49.80;;;;;;4995460;28;19906;-61
2021/12/13 09:25:16;;;;;;;;;;;10.60;50.70;;;;;;4995583;28;19917;-60
2021/12/13 09:27:59;;;;;;;;;;;10.50;50.90;;;;;;4995789;28;19905;-60
2021/12/13 09:30:28;;;;;;;;;;;10.60;52.30;;;;;;4995286;28;19905;-64
2021/12/13 09:32:56;;;;;;;;;;;10.60;53.60;;;;;;4995316;28;19922;-59
2021/12/13 09:35:22;;;;;;;;;;;10.70;53.20;;;;;;4995168;28;19913;-60
2021/12/13 09:37:48;;;;;;;;;;;10.80;52.10;;;;;;4995563;28;19906;-59
2021/12/13 09:40:15;;;;;;;;;;;10.90;50.90;;;;;;4995368;28;19912;-59
2021/12/13 09:42:48;;;;;;;;;;;11.00;49.10;;;;;;4995037;28;19913;-59
2021/12/13 09:45:19;;;;;;;;;;;11.10;50.30;;;;;;4999452;28;19928;-59
2021/12/13 09:47:45;;;;;;;;;;;11.10;50.30;;;;;;5013444;28;19914;-60
2021/12/13 09:50:13;;;;;;;;;;;11.10;48.80;;;;;;5013084;28;19905;-59
2021/12/13 09:52:42;;;;;;;;;;;11.20;47.60;;;;;;5013251;28;19913;-60
2021/12/13 09:55:17;;;;;;;;;;;11.20;47.70;;;;;;5013500;28;19968;-59
2021/12/13 09:58:15;;;;;;;;;;;11.10;47.80;;;;;;5012571;28;19916;-61
2021/12/13 10:00:45;;;;;;;;;;;11.10;47.90;;;;;;4957407;28;19917;-62
2021/12/13 10:03:17;;;;;;;;;;;11.00;46.60;;;;;;5009862;28;19909;-61
2021/12/13 10:05:44;;;;;;;;;;;11.00;46.10;;;;;;5010866;28;20306;-61
2021/12/13 10:08:15;;;;;;;;;;;11.20;47.10;;;;;;5011225;28;19909;-68
2021/12/13 10:10:44;;;;;;;;;;;11.20;47.10;;;;;;5012469;28;19912;-59
2021/12/13 10:13:19;;;;;;;;;;;11.30;48.10;;;;;;5011550;28;19968;-62
2021/12/13 10:16:07;;;;;;;;;;;11.30;48.40;;;;;;5010370;28;19940;-61
2021/12/13 10:18:34;;;;;;;;;;;11.30;47.10;;;;;;5011683;28;20377;-62
2021/12/13 10:21:03;;;;;;;;;;;11.20;47.00;;;;;;4993298;28;20285;-62
2021/12/13 10:23:34;;;;;;;;;;;11.10;46.60;;;;;;5010692;28;19917;-63
2021/12/13 10:26:04;;;;;;;;;;;11.10;46.90;;;;;;5011194;28;19905;-64
2021/12/13 10:28:32;;;;;;;;;;;11.20;46.40;;;;;;5011820;28;19956;-62
2021/12/13 10:30:59;;;;;;;;;;;11.20;45.90;;;;;;5011307;28;19912;-66
2021/12/13 10:33:26;;;;;;;;;;;11.20;46.40;;;;;;5010345;28;19918;-64
2021/12/13 10:35:53;;;;;;;;;;;11.20;47.10;;;;;;5010748;28;19959;-63
2021/12/13 10:38:22;;;;;;;;;;;11.10;46.50;;;;;;5010613;28;19996;-63
2021/12/13 10:40:53;;;;;;;;;;;11.20;46.40;;;;;;5010388;28;19916;-63
2021/12/13 10:43:21;;;;;;;;;;;11.10;46.70;;;;;;5010537;28;19947;-62
2021/12/13 10:46:04;;;;;;;;;;;11.20;47.70;;;;;;5011044;28;20298;-63
2021/12/13 10:48:31;;;;;;;;;;;11.30;48.60;;;;;;5012313;28;19905;-61
2021/12/13 10:51:05;;;;;;;;;;;11.30;47.40;;;;;;5011259;28;19920;-60
2021/12/13 10:53:31;;;;;;;;;;;11.30;48.20;;;;;;5010266;28;19918;-64
2021/12/13 10:56:05;;;;;;;;;;;11.40;47.20;;;;;;5010190;28;20353;-62
2021/12/13 10:58:32;;;;;;;;;;;11.40;46.40;;;;;;5011648;28;19905;-62
2021/12/13 11:01:00;;;;;;;;;;;11.40;47.10;;;;;;5010371;28;19956;-63
2021/12/13 11:03:27;;;;;;;;;;;11.40;48.00;;;;;;5010577;28;19963;-62
2021/12/13 11:05:52;;;;;;;;;;;11.40;47.60;;;;;;4993412;28;19910;-63
2021/12/13 11:08:19;;;;;;;;;;;11.50;46.50;;;;;;5007851;28;19915;-62
2021/12/13 11:10:50;;;;;;;;;;;11.50;43.40;;;;;;5010292;28;19952;-61
2021/12/13 11:13:17;;;;;;;;;;;11.40;44.50;;;;;;5012484;28;19914;-62
2021/12/13 11:15:45;;;;;;;;;;;11.50;46.50;;;;;;5012146;28;19940;-64
2021/12/13 11:18:15;;;;;;;;;;;11.60;45.90;;;;;;5012560;28;19945;-61
2021/12/13 11:20:45;;;;;;;;;;;11.60;42.00;;;;;;5013225;28;19906;-61
2021/12/13 11:23:11;;;;;;;;;;;11.50;41.10;;;;;;5010793;28;20027;-63
2021/12/13 11:25:39;;;;;;;;;;;11.50;41.80;;;;;;5011294;28;19905;-64
2021/12/13 11:28:05;;;;;;;;;;;11.50;42.70;;;;;;5012196;28;19905;-64
2021/12/13 11:30:32;;;;;;;;;;;11.60;43.20;;;;;;5015121;28;19959;-66
2021/12/13 11:32:58;;;;;;;;;;;11.60;43.20;;;;;;5015904;28;19920;-64
2021/12/13 11:35:42;;;;;;;;;;;11.60;42.20;;;;;;5016312;28;20397;-61
2021/12/13 11:38:10;;;;;;;;;;;11.60;40.80;;;;;;5015946;28;19905;-65
2021/12/13 11:40:54;;;;;;;;;;;11.60;41.60;;;;;;5015568;28;19905;-63
2021/12/13 11:43:25;;;;;;;;;;;11.60;42.20;;;;;;5015754;28;19913;-63
2021/12/13 11:46:19;;;;;;;;;;;11.70;44.20;;;;;;4997979;28;19917;-64
2021/12/13 11:48:46;;;;;;;;;;;11.50;42.20;;;;;;5015496;28;19905;-66
2021/12/13 11:51:34;;;;;;;;;;;11.40;41.00;;;;;;5015634;28;19947;-67
2021/12/13 11:54:20;;;;;;;;;;;11.30;41.50;;;;;;5014874;28;19975;-66
2021/12/13 11:57:04;;;;;;;;;;;11.40;40.90;;;;;;4995812;28;20411;-70
2021/12/13 11:59:36;;;;;;;;;;;11.50;42.10;;;;;;4978710;28;19951;-69
2021/12/13 12:02:08;;;;;;;;;;;11.60;43.10;;;;;;4995557;28;19956;-61
2021/12/13 12:04:52;;;;;;;;;;;11.60;43.40;;;;;;4996666;28;20370;-64
2021/12/13 12:07:36;;;;;;;;;;;11.70;43.20;;;;;;4996279;28;20000;-67
2021/12/13 12:10:16;;;;;;;;;;;11.70;42.40;;;;;;4996020;28;19909;-64
2021/12/13 12:13:00;;;;;;;;;;;11.70;40.60;;;;;;4996198;28;19914;-60
2021/12/13 12:15:27;;;;;;;;;;;11.60;39.90;;;;;;4996082;28;19909;-64
2021/12/13 12:17:54;;;;;;;;;;;11.70;40.10;;;;;;4996112;28;20285;-67
2021/12/13 12:20:30;;;;;;;;;;;11.70;41.30;;;;;;4996087;28;19937;-64
2021/12/13 12:23:00;;;;;;;;;;;11.70;43.00;;;;;;4996044;28;19906;-65
2021/12/13 12:25:28;;;;;;;;;;;11.70;42.40;;;;;;4996081;28;19988;-72
2021/12/13 12:27:58;;;;;;;;;;;11.70;42.50;;;;;;4995987;28;19912;-67
2021/12/13 12:30:27;;;;;;;;;;;11.50;43.00;;;;;;4995933;28;19910;-65
2021/12/13 12:32:58;;;;;;;;;;;11.40;42.80;;;;;;4977979;28;20366;-62
2021/12/13 12:35:25;;;;;;;;;;;11.40;43.00;;;;;;4996000;28;19932;-60
2021/12/13 12:37:57;;;;;;;;;;;11.50;44.60;;;;;;4996407;28;20045;-63
2021/12/13 12:40:28;;;;;;;;;;;11.60;46.50;;;;;;4995354;28;20278;-61
2021/12/13 12:42:56;;;;;;;;;;;11.60;46.50;;;;;;4995273;28;19917;-63
2021/12/13 12:45:25;;;;;;;;;;;11.60;45.80;;;;;;4995533;28;20035;-62
2021/12/13 12:47:57;;;;;;;;;;;11.50;47.50;;;;;;4995399;28;20360;-61
2021/12/13 12:50:28;;;;;;;;;;;11.50;48.80;;;;;;4995573;28;20401;-59
2021/12/13 12:52:56;;;;;;;;;;;11.50;49.00;;;;;;4995122;28;19913;-60
2021/12/13 12:55:27;;;;;;;;;;;11.60;48.20;;;;;;4995401;28;19916;-62
2021/12/13 12:57:53;;;;;;;;;;;11.60;49.10;;;;;;4994625;28;19952;-62
2021/12/13 13:00:28;;;;;;;;;;;11.50;51.10;;;;;;4994832;28;19905;-61
2021/12/13 13:02:54;;;;;;;;;;;11.60;50.90;;;;;;4994677;28;19910;-60
2021/12/13 13:05:22;;;;;;;;;;;11.70;50.30;;;;;;4997385;28;20378;-59
2021/12/13 13:07:50;;;;;;;;;;;11.70;49.40;;;;;;4997201;28;20394;-59
2021/12/13 13:12:46;;;;;;;;;;;11.70;48.90;;;;;;4997032;28;19941;-60
2021/12/13 13:15:32;;;;;;;;;;;11.80;49.00;;;;;;4994451;28;19906;-64
2021/12/13 13:18:05;;;;;;;;;;;11.80;49.00;;;;;;4994002;28;19996;-62
2021/12/13 13:20:35;;;;;;;;;;;11.70;47.90;;;;;;4993668;28;19917;-61
2021/12/13 13:23:01;;;;;;;;;;;11.70;48.40;;;;;;4994136;28;19910;-59
2021/12/13 13:25:30;;;;;;;;;;;11.70;50.00;;;;;;4994134;28;19905;-60
2021/12/13 13:27:56;;;;;;;;;;;11.50;49.10;;;;;;4994057;28;20298;-72
2021/12/13 13:30:28;;;;;;;;;;;11.40;49.70;;;;;;4993905;28;19961;-59
2021/12/13 13:32:53;;;;;;;;;;;11.30;49.20;;;;;;4993608;28;19924;-61
2021/12/13 13:35:19;;;;;;;;;;;11.30;51.30;;;;;;4993639;28;19999;-62
2021/12/13 13:37:45;;;;;;;;;;;11.40;52.60;;;;;;4993571;28;20368;-60
2021/12/13 13:40:21;;;;;;;;;;;11.40;53.30;;;;;;4998172;28;20345;-62
2021/12/13 13:42:49;;;;;;;;;;;11.50;52.30;;;;;;4994422;28;19917;-63
2021/12/13 13:45:22;;;;;;;;;;;11.50;52.40;;;;;;4995063;28;19936;-61
2021/12/13 13:47:50;;;;;;;;;;;11.50;53.00;;;;;;4994286;28;19906;-59
2021/12/13 13:50:24;;;;;;;;;;;11.50;53.20;;;;;;4994602;28;19910;-60
2021/12/13 13:52:51;;;;;;;;;;;11.40;53.00;;;;;;4995819;28;19936;-61
2021/12/13 13:55:37;;;;;;;;;;;11.40;53.90;;;;;;4995180;28;19913;-60
2021/12/13 13:58:07;;;;;;;;;;;11.30;54.20;;;;;;4993383;28;19912;-64
2021/12/13 14:00:36;;;;;;;;;;;11.30;54.90;;;;;;4994351;28;20431;-63
2021/12/13 14:03:02;;;;;;;;;;;11.20;55.40;;;;;;4994197;28;20357;-63
2021/12/13 14:05:32;;;;;;;;;;;11.20;55.30;;;;;;4994485;28;19906;-63
2021/12/13 14:07:57;;;;;;;;;;;11.30;55.40;;;;;;4998383;28;20436;-66
2021/12/13 14:10:23;;;;;;;;;;;11.30;56.10;;;;;;5007648;28;19918;-63
2021/12/13 14:12:50;;;;;;;;;;;11.40;55.40;;;;;;5006437;28;20281;-66
2021/12/13 14:15:24;;;;;;;;;;;11.40;54.70;;;;;;5011112;28;20451;-65
2021/12/13 14:18:16;;;;;;;;;;;11.50;54.30;;;;;;4994540;28;19906;-65
2021/12/13 14:20:44;;;;;;;;;;;11.30;56.10;;;;;;4989193;28;19917;-64
2021/12/13 14:23:13;;;;;;;;;;;11.20;56.20;;;;;;5011666;28;19950;-64
2021/12/13 14:25:47;;;;;;;;;;;11.10;55.70;;;;;;5010154;28;19955;-63
2021/12/13 14:28:19;;;;;;;;;;;11.00;57.40;;;;;;5011768;28;19916;-64
2021/12/13 14:30:48;;;;;;;;;;;11.00;58.10;;;;;;5011934;28;19983;-62
2021/12/13 14:33:30;;;;;;;;;;;10.90;57.80;;;;;;5012553;28;19921;-64
2021/12/13 14:36:19;;;;;;;;;;;11.00;57.30;;;;;;5011497;28;20387;-65
2021/12/13 14:38:49;;;;;;;;;;;11.00;57.70;;;;;;4996946;28;19952;-64
2021/12/13 14:41:16;;;;;;;;;;;11.00;58.20;;;;;;4994100;28;19912;-63
2021/12/13 14:43:47;;;;;;;;;;;10.90;58.90;;;;;;5011805;28;19909;-63
2021/12/13 14:46:21;;;;;;;;;;;10.80;59.50;;;;;;5011719;28;19937;-65
2021/12/13 14:48:47;;;;;;;;;;;10.70;59.50;;;;;;5010621;28;19963;-61